Airfield :
LOGIN :

Register | Disclaimer

   EN    FR    IT 

 










Legend :    VFR   Marginal VFR   IFR   Intensive IFR   Very Intensive IFR
Visi :
Ceiling :
>= 8 km
>= 3000ft
5 to 8 km
1000 to 3000 ft
1500m to 5 km
500 to 1000 ft
800 to 1500m
200 to 500 ft
< 800m
< 200 ft
Symbols :   Thunderstorms  Fog  Heavy snow  Heavy precipitations  Wind > 20 kt
SIGMETs :     Misc.  Thunderstorms  Icing  Turbulence  Mountain Waves  Volcanic Ashes







- Airport Elevation : 15 ft
- IATA code : BHD
- Download approach charts


EGAC - George Best Belfast City

CURRENT METAR :
  • 161450Z AUTO 28007KT 9999 BKN039/// 15/08 Q1024

EXPIRED METARs :
  • 161420Z AUTO 28006KT 240V320 9999 BKN038/// 16/08 Q1024
  • 161350Z AUTO 30006KT 9999 BKN032/// 15/08 Q1024
  • 161320Z AUTO 31006KT 280V360 9999 BKN033/// 15/08 Q1024
  • 161250Z AUTO 32005KT 280V020 9999 SCT029/// BKN034/// 15/08 Q1024
  • 161220Z AUTO VRB04KT 9999 BKN031/// BKN040/// 15/09 Q1025

TAF TAF EGAC
Valid from the 16 at 15:00 until the 16 at 21:00 UTC


161356Z 1615/1621 31006KT 9999 BKN035
ATIS : +44 02890 935 124
No reported NOTAMs for that airfield.



MET'MAP, your aeronautical weather chart ! - Copyright ORBIFLY December 2007 - Disclaimer

ORBIFLY MET'MAP TEAM :

Programming & Development : Alexandra Zaïnal
Concept & Development : Baudouin d'Aumeries
Co-Development & Prog : Marc-Olivier Méhu
Technical & hardware support : Manuel Goepfert

Contact : metmap@orbifly.com




SOURCES & CREDITS :

   NOAA